sensor_id;sensor_type;location;lat;lon;timestamp;temperature;humidity
62916;DHT22;49010;51.230;-2.306;2022-10-31T00:01:41;14.10;99.90
62916;DHT22;49010;51.230;-2.306;2022-10-31T00:05:23;14.20;99.90
62916;DHT22;49010;51.230;-2.306;2022-10-31T00:09:05;14.20;99.90
62916;DHT22;49010;51.230;-2.306;2022-10-31T00:12:47;14.20;99.90
62916;DHT22;49010;51.230;-2.306;2022-10-31T00:16:29;14.20;99.90
62916;DHT22;49010;51.230;-2.306;2022-10-31T00:20:11;14.20;99.90
62916;DHT22;49010;51.230;-2.306;2022-10-31T00:23:53;14.20;99.90
62916;DHT22;49010;51.230;-2.306;2022-10-31T00:27:35;14.20;99.90
62916;DHT22;49010;51.230;-2.306;2022-10-31T00:31:17;14.20;99.90
62916;DHT22;49010;51.230;-2.306;2022-10-31T00:34:58;14.20;99.90
62916;DHT22;49010;51.230;-2.306;2022-10-31T00:38:41;14.20;99.90
62916;DHT22;49010;51.230;-2.306;2022-10-31T00:42:23;14.10;99.90
62916;DHT22;49010;51.230;-2.306;2022-10-31T00:46:05;14.10;99.90
62916;DHT22;49010;51.230;-2.306;2022-10-31T00:49:47;14.00;99.90
62916;DHT22;49010;51.230;-2.306;2022-10-31T00:53:29;14.00;99.90
62916;DHT22;49010;51.230;-2.306;2022-10-31T00:57:10;13.90;99.90
62916;DHT22;49010;51.230;-2.306;2022-10-31T01:00:53;13.90;99.90
62916;DHT22;49010;51.230;-2.306;2022-10-31T01:04:37;13.90;99.90
62916;DHT22;49010;51.230;-2.306;2022-10-31T01:08:19;13.80;99.90
62916;DHT22;49010;51.230;-2.306;2022-10-31T01:12:01;13.80;99.90
62916;DHT22;49010;51.230;-2.306;2022-10-31T01:15:43;13.80;99.90
62916;DHT22;49010;51.230;-2.306;2022-10-31T01:19:25;13.70;99.90
62916;DHT22;49010;51.230;-2.306;2022-10-31T01:23:06;13.70;99.90
62916;DHT22;49010;51.230;-2.306;2022-10-31T01:26:48;13.70;99.90
62916;DHT22;49010;51.230;-2.306;2022-10-31T01:30:30;13.60;99.90
62916;DHT22;49010;51.230;-2.306;2022-10-31T01:34:15;13.60;99.90
62916;DHT22;49010;51.230;-2.306;2022-10-31T01:37:57;13.60;99.90
62916;DHT22;49010;51.230;-2.306;2022-10-31T01:41:44;13.70;99.90
62916;DHT22;49010;51.230;-2.306;2022-10-31T01:45:26;13.60;99.90
62916;DHT22;49010;51.230;-2.306;2022-10-31T01:49:15;13.60;99.90
62916;DHT22;49010;51.230;-2.306;2022-10-31T01:53:00;13.70;99.90
62916;DHT22;49010;51.230;-2.306;2022-10-31T01:56:51;13.70;99.90
62916;DHT22;49010;51.230;-2.306;2022-10-31T02:00:34;13.70;99.90
62916;DHT22;49010;51.230;-2.306;2022-10-31T02:04:17;13.70;99.90
62916;DHT22;49010;51.230;-2.306;2022-10-31T02:11:57;13.80;99.90
62916;DHT22;49010;51.230;-2.306;2022-10-31T02:15:40;13.90;99.90
62916;DHT22;49010;51.230;-2.306;2022-10-31T02:32:30;14.10;99.90
62916;DHT22;49010;51.230;-2.306;2022-10-31T02:36:19;14.00;99.90
62916;DHT22;49010;51.230;-2.306;2022-10-31T02:40:25;14.00;99.90
62916;DHT22;49010;51.230;-2.306;2022-10-31T02:44:38;14.00;99.90
62916;DHT22;49010;51.230;-2.306;2022-10-31T02:48:26;14.00;99.90
62916;DHT22;49010;51.230;-2.306;2022-10-31T02:52:21;14.00;99.90
62916;DHT22;49010;51.230;-2.306;2022-10-31T02:56:17;14.10;99.90
62916;DHT22;49010;51.230;-2.306;2022-10-31T03:00:05;14.00;99.90
62916;DHT22;49010;51.230;-2.306;2022-10-31T03:07:58;14.00;99.90
62916;DHT22;49010;51.230;-2.306;2022-10-31T03:15:44;14.00;99.90
62916;DHT22;49010;51.230;-2.306;2022-10-31T03:19:29;14.00;99.90
62916;DHT22;49010;51.230;-2.306;2022-10-31T03:23:14;14.00;99.90
62916;DHT22;49010;51.230;-2.306;2022-10-31T03:26:59;14.00;99.90
62916;DHT22;49010;51.230;-2.306;2022-10-31T03:30:42;14.10;99.90
62916;DHT22;49010;51.230;-2.306;2022-10-31T03:34:27;14.10;99.90
62916;DHT22;49010;51.230;-2.306;2022-10-31T03:38:10;14.10;99.90
62916;DHT22;49010;51.230;-2.306;2022-10-31T03:42:05;14.20;99.90
62916;DHT22;49010;51.230;-2.306;2022-10-31T03:45:49;14.20;99.90
62916;DHT22;49010;51.230;-2.306;2022-10-31T03:49:32;14.20;99.90
62916;DHT22;49010;51.230;-2.306;2022-10-31T03:53:31;14.30;99.90
62916;DHT22;49010;51.230;-2.306;2022-10-31T04:01:10;14.30;99.90
62916;DHT22;49010;51.230;-2.306;2022-10-31T04:04:53;14.30;99.90
62916;DHT22;49010;51.230;-2.306;2022-10-31T04:08:42;14.30;99.90
62916;DHT22;49010;51.230;-2.306;2022-10-31T04:12:27;14.40;99.90
62916;DHT22;49010;51.230;-2.306;2022-10-31T04:16:11;14.50;99.90
62916;DHT22;49010;51.230;-2.306;2022-10-31T04:20:01;14.40;99.90
62916;DHT22;49010;51.230;-2.306;2022-10-31T04:23:43;14.50;99.90
62916;DHT22;49010;51.230;-2.306;2022-10-31T04:27:25;14.50;99.90
62916;DHT22;49010;51.230;-2.306;2022-10-31T04:31:09;14.50;99.90
62916;DHT22;49010;51.230;-2.306;2022-10-31T04:34:52;14.60;99.90
62916;DHT22;49010;51.230;-2.306;2022-10-31T04:38:34;14.60;99.90
62916;DHT22;49010;51.230;-2.306;2022-10-31T04:42:15;14.60;99.90
62916;DHT22;49010;51.230;-2.306;2022-10-31T04:45:57;14.60;99.90
62916;DHT22;49010;51.230;-2.306;2022-10-31T04:49:39;14.60;99.90
62916;DHT22;49010;51.230;-2.306;2022-10-31T04:53:21;14.60;99.90
62916;DHT22;49010;51.230;-2.306;2022-10-31T04:57:03;14.70;99.90
62916;DHT22;49010;51.230;-2.306;2022-10-31T05:00:45;14.60;99.90
62916;DHT22;49010;51.230;-2.306;2022-10-31T05:04:27;14.60;99.90
62916;DHT22;49010;51.230;-2.306;2022-10-31T05:08:08;14.60;99.90
62916;DHT22;49010;51.230;-2.306;2022-10-31T05:11:50;14.60;99.90
62916;DHT22;49010;51.230;-2.306;2022-10-31T05:15:32;14.50;99.90
62916;DHT22;49010;51.230;-2.306;2022-10-31T05:19:14;14.50;99.90
62916;DHT22;49010;51.230;-2.306;2022-10-31T05:22:57;14.50;99.90
62916;DHT22;49010;51.230;-2.306;2022-10-31T05:26:39;14.40;99.90
62916;DHT22;49010;51.230;-2.306;2022-10-31T05:30:23;14.40;99.90
62916;DHT22;49010;51.230;-2.306;2022-10-31T05:34:05;14.40;99.90
62916;DHT22;49010;51.230;-2.306;2022-10-31T05:37:47;14.40;99.90
62916;DHT22;49010;51.230;-2.306;2022-10-31T05:41:29;14.50;99.90
62916;DHT22;49010;51.230;-2.306;2022-10-31T05:45:13;14.40;99.90
62916;DHT22;49010;51.230;-2.306;2022-10-31T05:48:55;14.40;99.90
62916;DHT22;49010;51.230;-2.306;2022-10-31T05:52:43;14.50;99.90
62916;DHT22;49010;51.230;-2.306;2022-10-31T05:56:25;14.40;99.90
62916;DHT22;49010;51.230;-2.306;2022-10-31T06:00:07;14.30;99.90
62916;DHT22;49010;51.230;-2.306;2022-10-31T06:03:49;14.30;99.90
62916;DHT22;49010;51.230;-2.306;2022-10-31T06:07:34;14.30;99.90
62916;DHT22;49010;51.230;-2.306;2022-10-31T06:11:16;14.30;99.90
62916;DHT22;49010;51.230;-2.306;2022-10-31T06:14:58;14.30;99.90
62916;DHT22;49010;51.230;-2.306;2022-10-31T06:18:40;14.30;99.90
62916;DHT22;49010;51.230;-2.306;2022-10-31T06:22:22;14.20;99.90
62916;DHT22;49010;51.230;-2.306;2022-10-31T06:26:04;14.30;99.90
62916;DHT22;49010;51.230;-2.306;2022-10-31T06:29:46;14.20;99.90
62916;DHT22;49010;51.230;-2.306;2022-10-31T06:33:28;14.10;99.90
62916;DHT22;49010;51.230;-2.306;2022-10-31T06:37:11;14.10;99.90
62916;DHT22;49010;51.230;-2.306;2022-10-31T06:40:54;14.10;99.90
62916;DHT22;49010;51.230;-2.306;2022-10-31T06:44:36;14.10;99.90
62916;DHT22;49010;51.230;-2.306;2022-10-31T06:48:17;14.00;99.90
62916;DHT22;49010;51.230;-2.306;2022-10-31T06:51:59;14.00;99.90
62916;DHT22;49010;51.230;-2.306;2022-10-31T06:55:42;13.90;99.90
62916;DHT22;49010;51.230;-2.306;2022-10-31T06:59:24;13.90;99.90
62916;DHT22;49010;51.230;-2.306;2022-10-31T07:03:10;13.90;99.90
62916;DHT22;49010;51.230;-2.306;2022-10-31T07:06:52;13.90;99.90
62916;DHT22;49010;51.230;-2.306;2022-10-31T07:10:35;13.90;99.90
62916;DHT22;49010;51.230;-2.306;2022-10-31T07:14:21;13.80;99.90
62916;DHT22;49010;51.230;-2.306;2022-10-31T07:18:04;13.90;99.90
62916;DHT22;49010;51.230;-2.306;2022-10-31T07:21:47;13.80;99.90
62916;DHT22;49010;51.230;-2.306;2022-10-31T07:25:28;13.80;99.90
62916;DHT22;49010;51.230;-2.306;2022-10-31T07:29:10;13.70;99.90
62916;DHT22;49010;51.230;-2.306;2022-10-31T07:32:52;13.80;99.90
62916;DHT22;49010;51.230;-2.306;2022-10-31T07:36:34;13.80;99.90
62916;DHT22;49010;51.230;-2.306;2022-10-31T07:40:17;13.80;99.90
62916;DHT22;49010;51.230;-2.306;2022-10-31T07:43:59;13.80;99.90
62916;DHT22;49010;51.230;-2.306;2022-10-31T07:47:45;13.80;99.90
62916;DHT22;49010;51.230;-2.306;2022-10-31T07:51:27;13.80;99.90
62916;DHT22;49010;51.230;-2.306;2022-10-31T07:55:10;13.80;99.90
62916;DHT22;49010;51.230;-2.306;2022-10-31T07:58:52;13.90;99.90
62916;DHT22;49010;51.230;-2.306;2022-10-31T08:02:34;13.90;99.90
62916;DHT22;49010;51.230;-2.306;2022-10-31T08:06:16;14.00;99.90
62916;DHT22;49010;51.230;-2.306;2022-10-31T08:09:57;14.10;99.90
62916;DHT22;49010;51.230;-2.306;2022-10-31T08:13:39;14.10;99.90
62916;DHT22;49010;51.230;-2.306;2022-10-31T08:17:21;14.20;99.90
62916;DHT22;49010;51.230;-2.306;2022-10-31T08:21:03;14.20;99.90
62916;DHT22;49010;51.230;-2.306;2022-10-31T08:24:45;14.40;99.90
62916;DHT22;49010;51.230;-2.306;2022-10-31T08:28:27;14.50;99.90
62916;DHT22;49010;51.230;-2.306;2022-10-31T08:32:09;14.60;99.90
62916;DHT22;49010;51.230;-2.306;2022-10-31T08:35:50;14.70;99.90
62916;DHT22;49010;51.230;-2.306;2022-10-31T08:39:32;14.80;99.90
62916;DHT22;49010;51.230;-2.306;2022-10-31T08:43:15;14.90;99.90
62916;DHT22;49010;51.230;-2.306;2022-10-31T08:46:57;15.00;99.90
62916;DHT22;49010;51.230;-2.306;2022-10-31T08:50:40;15.10;99.90
62916;DHT22;49010;51.230;-2.306;2022-10-31T08:54:22;15.20;99.90
62916;DHT22;49010;51.230;-2.306;2022-10-31T08:58:06;15.40;99.90
62916;DHT22;49010;51.230;-2.306;2022-10-31T09:01:49;15.50;99.90
62916;DHT22;49010;51.230;-2.306;2022-10-31T09:05:32;15.70;99.80
62916;DHT22;49010;51.230;-2.306;2022-10-31T09:09:14;15.80;99.00
62916;DHT22;49010;51.230;-2.306;2022-10-31T09:13:10;16.00;98.80
62916;DHT22;49010;51.230;-2.306;2022-10-31T09:16:52;16.50;98.40
62916;DHT22;49010;51.230;-2.306;2022-10-31T09:20:35;17.00;96.70
62916;DHT22;49010;51.230;-2.306;2022-10-31T09:24:17;17.30;95.40
62916;DHT22;49010;51.230;-2.306;2022-10-31T09:28:00;17.50;94.10
62916;DHT22;49010;51.230;-2.306;2022-10-31T09:31:43;17.60;93.60
62916;DHT22;49010;51.230;-2.306;2022-10-31T09:35:26;17.50;93.40
62916;DHT22;49010;51.230;-2.306;2022-10-31T09:39:08;17.50;93.30
62916;DHT22;49010;51.230;-2.306;2022-10-31T09:47:02;17.20;93.50
62916;DHT22;49010;51.230;-2.306;2022-10-31T09:50:57;17.10;93.50
62916;DHT22;49010;51.230;-2.306;2022-10-31T09:54:51;17.00;93.20
62916;DHT22;49010;51.230;-2.306;2022-10-31T09:58:42;17.00;93.50
62916;DHT22;49010;51.230;-2.306;2022-10-31T10:02:42;17.00;93.30
62916;DHT22;49010;51.230;-2.306;2022-10-31T10:06:27;17.00;93.30
62916;DHT22;49010;51.230;-2.306;2022-10-31T10:18:25;17.20;93.10
62916;DHT22;49010;51.230;-2.306;2022-10-31T10:26:36;17.60;92.80
62916;DHT22;49010;51.230;-2.306;2022-10-31T10:30:25;18.20;91.90
62916;DHT22;49010;51.230;-2.306;2022-10-31T10:34:32;18.60;89.10
62916;DHT22;49010;51.230;-2.306;2022-10-31T10:38:24;18.90;88.00
62916;DHT22;49010;51.230;-2.306;2022-10-31T10:42:14;19.00;85.10
62916;DHT22;49010;51.230;-2.306;2022-10-31T10:46:23;19.00;84.70
62916;DHT22;49010;51.230;-2.306;2022-10-31T10:50:34;18.90;85.20
62916;DHT22;49010;51.230;-2.306;2022-10-31T10:54:23;18.80;83.30
62916;DHT22;49010;51.230;-2.306;2022-10-31T10:58:09;18.60;84.70
62916;DHT22;49010;51.230;-2.306;2022-10-31T11:01:52;18.40;85.70
62916;DHT22;49010;51.230;-2.306;2022-10-31T11:05:41;18.30;84.70
62916;DHT22;49010;51.230;-2.306;2022-10-31T11:09:24;18.20;84.60
62916;DHT22;49010;51.230;-2.306;2022-10-31T11:13:20;18.30;83.20
62916;DHT22;49010;51.230;-2.306;2022-10-31T11:17:26;18.40;83.20
62916;DHT22;49010;51.230;-2.306;2022-10-31T11:21:26;18.50;83.80
62916;DHT22;49010;51.230;-2.306;2022-10-31T11:25:26;18.60;83.70
62916;DHT22;49010;51.230;-2.306;2022-10-31T11:29:25;18.70;82.80
62916;DHT22;49010;51.230;-2.306;2022-10-31T11:33:30;18.60;82.40
62916;DHT22;49010;51.230;-2.306;2022-10-31T11:37:15;18.70;79.80
62916;DHT22;49010;51.230;-2.306;2022-10-31T11:41:09;18.80;78.20
62916;DHT22;49010;51.230;-2.306;2022-10-31T11:44:53;19.00;77.90
62916;DHT22;49010;51.230;-2.306;2022-10-31T11:48:36;19.20;76.20
62916;DHT22;49010;51.230;-2.306;2022-10-31T11:52:24;19.30;74.60
62916;DHT22;49010;51.230;-2.306;2022-10-31T11:56:15;19.40;75.70
62916;DHT22;49010;51.230;-2.306;2022-10-31T11:59:59;19.60;76.00
62916;DHT22;49010;51.230;-2.306;2022-10-31T12:03:58;19.80;74.10
62916;DHT22;49010;51.230;-2.306;2022-10-31T12:07:42;20.60;72.80
62916;DHT22;49010;51.230;-2.306;2022-10-31T12:19:18;23.70;61.90
62916;DHT22;49010;51.230;-2.306;2022-10-31T12:48:10;25.80;55.50
62916;DHT22;49010;51.230;-2.306;2022-10-31T12:52:04;25.40;56.70
62916;DHT22;49010;51.230;-2.306;2022-10-31T12:59:43;24.40;53.80
62916;DHT22;49010;51.230;-2.306;2022-10-31T13:04:18;24.30;56.30
62916;DHT22;49010;51.230;-2.306;2022-10-31T13:07:44;24.20;55.20
62916;DHT22;49010;51.230;-2.306;2022-10-31T13:11:43;23.50;54.10
62916;DHT22;49010;51.230;-2.306;2022-10-31T13:15:31;22.80;56.90
62916;DHT22;49010;51.230;-2.306;2022-10-31T13:19:16;22.40;58.60
62916;DHT22;49010;51.230;-2.306;2022-10-31T13:27:25;22.90;59.70
62916;DHT22;49010;51.230;-2.306;2022-10-31T13:31:08;23.90;56.60
62916;DHT22;49010;51.230;-2.306;2022-10-31T13:34:54;23.90;54.00
62916;DHT22;49010;51.230;-2.306;2022-10-31T13:38:56;23.80;54.70
62916;DHT22;49010;51.230;-2.306;2022-10-31T13:43:17;23.40;57.50
62916;DHT22;49010;51.230;-2.306;2022-10-31T13:47:01;22.80;60.20
62916;DHT22;49010;51.230;-2.306;2022-10-31T13:50:55;22.20;59.20
62916;DHT22;49010;51.230;-2.306;2022-10-31T13:54:45;21.70;61.20
62916;DHT22;49010;51.230;-2.306;2022-10-31T13:58:29;21.40;62.00
62916;DHT22;49010;51.230;-2.306;2022-10-31T14:02:17;21.10;63.70
62916;DHT22;49010;51.230;-2.306;2022-10-31T14:05:59;20.80;65.10
62916;DHT22;49010;51.230;-2.306;2022-10-31T14:10:04;20.60;65.80
62916;DHT22;49010;51.230;-2.306;2022-10-31T14:13:47;20.20;68.30
62916;DHT22;49010;51.230;-2.306;2022-10-31T14:17:32;20.00;68.90
62916;DHT22;49010;51.230;-2.306;2022-10-31T14:33:01;19.60;72.10
62916;DHT22;49010;51.230;-2.306;2022-10-31T14:40:50;19.20;72.40
62916;DHT22;49010;51.230;-2.306;2022-10-31T14:52:36;18.70;76.80
62916;DHT22;49010;51.230;-2.306;2022-10-31T14:56:33;18.50;78.20
62916;DHT22;49010;51.230;-2.306;2022-10-31T15:00:20;18.30;79.80
62916;DHT22;49010;51.230;-2.306;2022-10-31T15:04:13;18.10;81.30
62916;DHT22;49010;51.230;-2.306;2022-10-31T15:08:14;18.00;82.40
62916;DHT22;49010;51.230;-2.306;2022-10-31T15:16:08;17.90;83.30
62916;DHT22;49010;51.230;-2.306;2022-10-31T15:19:52;17.90;84.70
62916;DHT22;49010;51.230;-2.306;2022-10-31T15:23:35;17.90;85.30
62916;DHT22;49010;51.230;-2.306;2022-10-31T15:27:17;18.00;85.80
62916;DHT22;49010;51.230;-2.306;2022-10-31T15:31:01;17.90;86.50
62916;DHT22;49010;51.230;-2.306;2022-10-31T15:34:43;18.00;86.10
62916;DHT22;49010;51.230;-2.306;2022-10-31T15:38:27;18.00;87.00
62916;DHT22;49010;51.230;-2.306;2022-10-31T15:46:03;17.90;88.00
62916;DHT22;49010;51.230;-2.306;2022-10-31T15:49:53;17.70;89.30
62916;DHT22;49010;51.230;-2.306;2022-10-31T15:53:42;17.70;90.00
62916;DHT22;49010;51.230;-2.306;2022-10-31T15:57:25;17.60;90.30
62916;DHT22;49010;51.230;-2.306;2022-10-31T16:01:29;17.60;90.40
62916;DHT22;49010;51.230;-2.306;2022-10-31T16:05:17;17.50;90.50
62916;DHT22;49010;51.230;-2.306;2022-10-31T16:09:00;17.50;90.70
62916;DHT22;49010;51.230;-2.306;2022-10-31T16:12:44;17.50;90.90
62916;DHT22;49010;51.230;-2.306;2022-10-31T16:16:27;17.40;90.90
62916;DHT22;49010;51.230;-2.306;2022-10-31T16:20:28;17.30;91.30
62916;DHT22;49010;51.230;-2.306;2022-10-31T16:24:20;17.30;91.50
62916;DHT22;49010;51.230;-2.306;2022-10-31T16:28:13;17.20;91.50
62916;DHT22;49010;51.230;-2.306;2022-10-31T16:32:00;17.10;91.90
62916;DHT22;49010;51.230;-2.306;2022-10-31T16:35:42;17.10;92.20
62916;DHT22;49010;51.230;-2.306;2022-10-31T16:39:24;17.10;92.30
62916;DHT22;49010;51.230;-2.306;2022-10-31T16:43:11;17.10;92.40
62916;DHT22;49010;51.230;-2.306;2022-10-31T16:47:13;17.00;92.50
62916;DHT22;49010;51.230;-2.306;2022-10-31T16:50:55;17.00;92.70
62916;DHT22;49010;51.230;-2.306;2022-10-31T16:54:37;16.90;93.10
62916;DHT22;49010;51.230;-2.306;2022-10-31T16:58:28;16.90;93.40
62916;DHT22;49010;51.230;-2.306;2022-10-31T17:02:14;16.80;93.60
62916;DHT22;49010;51.230;-2.306;2022-10-31T17:05:57;16.70;93.80
62916;DHT22;49010;51.230;-2.306;2022-10-31T17:09:39;16.60;94.30
62916;DHT22;49010;51.230;-2.306;2022-10-31T17:13:23;16.50;95.40
62916;DHT22;49010;51.230;-2.306;2022-10-31T17:17:07;16.40;96.00
62916;DHT22;49010;51.230;-2.306;2022-10-31T17:20:49;16.30;96.60
62916;DHT22;49010;51.230;-2.306;2022-10-31T17:24:32;16.30;97.30
62916;DHT22;49010;51.230;-2.306;2022-10-31T17:28:14;16.20;97.50
62916;DHT22;49010;51.230;-2.306;2022-10-31T17:31:55;16.20;97.90
62916;DHT22;49010;51.230;-2.306;2022-10-31T17:35:43;16.20;98.00
62916;DHT22;49010;51.230;-2.306;2022-10-31T17:39:25;16.20;97.90
62916;DHT22;49010;51.230;-2.306;2022-10-31T17:43:09;16.10;98.50
62916;DHT22;49010;51.230;-2.306;2022-10-31T17:46:51;16.10;98.70
62916;DHT22;49010;51.230;-2.306;2022-10-31T17:50:33;16.00;99.20
62916;DHT22;49010;51.230;-2.306;2022-10-31T17:54:15;16.10;99.30
62916;DHT22;49010;51.230;-2.306;2022-10-31T17:57:59;15.90;99.80
62916;DHT22;49010;51.230;-2.306;2022-10-31T18:01:41;15.90;99.90
62916;DHT22;49010;51.230;-2.306;2022-10-31T18:05:23;15.90;99.90
62916;DHT22;49010;51.230;-2.306;2022-10-31T18:09:05;15.90;99.90
62916;DHT22;49010;51.230;-2.306;2022-10-31T18:12:47;15.90;99.90
62916;DHT22;49010;51.230;-2.306;2022-10-31T18:16:29;15.90;99.90
62916;DHT22;49010;51.230;-2.306;2022-10-31T18:20:11;15.90;99.90
62916;DHT22;49010;51.230;-2.306;2022-10-31T18:23:59;15.90;99.90
62916;DHT22;49010;51.230;-2.306;2022-10-31T18:27:43;15.90;99.90
62916;DHT22;49010;51.230;-2.306;2022-10-31T18:31:25;15.70;99.90
62916;DHT22;49010;51.230;-2.306;2022-10-31T18:35:07;15.80;99.90
62916;DHT22;49010;51.230;-2.306;2022-10-31T18:38:49;15.70;99.90
62916;DHT22;49010;51.230;-2.306;2022-10-31T18:42:31;15.70;99.90
62916;DHT22;49010;51.230;-2.306;2022-10-31T18:46:14;15.70;99.90
62916;DHT22;49010;51.230;-2.306;2022-10-31T18:49:56;15.70;99.90
62916;DHT22;49010;51.230;-2.306;2022-10-31T18:53:38;15.70;99.90
62916;DHT22;49010;51.230;-2.306;2022-10-31T18:57:20;15.80;99.90
62916;DHT22;49010;51.230;-2.306;2022-10-31T19:01:10;15.80;99.90
62916;DHT22;49010;51.230;-2.306;2022-10-31T19:04:52;15.80;99.90
62916;DHT22;49010;51.230;-2.306;2022-10-31T19:08:34;15.80;99.90
62916;DHT22;49010;51.230;-2.306;2022-10-31T19:12:16;15.70;99.90
62916;DHT22;49010;51.230;-2.306;2022-10-31T19:16:13;15.80;99.90
62916;DHT22;49010;51.230;-2.306;2022-10-31T19:19:55;15.80;99.90
62916;DHT22;49010;51.230;-2.306;2022-10-31T19:23:37;15.90;99.90
62916;DHT22;49010;51.230;-2.306;2022-10-31T19:27:19;15.80;99.90
62916;DHT22;49010;51.230;-2.306;2022-10-31T19:31:02;15.80;99.90
62916;DHT22;49010;51.230;-2.306;2022-10-31T19:34:44;15.80;99.90
62916;DHT22;49010;51.230;-2.306;2022-10-31T19:38:27;15.80;99.90
62916;DHT22;49010;51.230;-2.306;2022-10-31T19:42:09;15.90;99.90
62916;DHT22;49010;51.230;-2.306;2022-10-31T19:45:56;15.70;99.90
62916;DHT22;49010;51.230;-2.306;2022-10-31T19:49:37;15.80;99.90
62916;DHT22;49010;51.230;-2.306;2022-10-31T19:53:20;15.70;99.90
62916;DHT22;49010;51.230;-2.306;2022-10-31T19:57:01;15.70;99.90
62916;DHT22;49010;51.230;-2.306;2022-10-31T20:00:43;15.80;99.90
62916;DHT22;49010;51.230;-2.306;2022-10-31T20:04:25;15.80;99.90
62916;DHT22;49010;51.230;-2.306;2022-10-31T20:08:13;15.80;99.90
62916;DHT22;49010;51.230;-2.306;2022-10-31T20:11:56;15.70;99.90
62916;DHT22;49010;51.230;-2.306;2022-10-31T20:15:38;15.70;99.90
62916;DHT22;49010;51.230;-2.306;2022-10-31T20:19:19;15.70;99.90
62916;DHT22;49010;51.230;-2.306;2022-10-31T20:23:02;15.80;99.90
62916;DHT22;49010;51.230;-2.306;2022-10-31T20:26:44;15.60;99.90
62916;DHT22;49010;51.230;-2.306;2022-10-31T20:30:26;15.70;99.90
62916;DHT22;49010;51.230;-2.306;2022-10-31T20:34:10;15.60;99.90
62916;DHT22;49010;51.230;-2.306;2022-10-31T20:37:52;15.70;99.90
62916;DHT22;49010;51.230;-2.306;2022-10-31T20:41:37;15.70;99.90
62916;DHT22;49010;51.230;-2.306;2022-10-31T20:45:20;15.60;99.90
62916;DHT22;49010;51.230;-2.306;2022-10-31T20:49:02;15.60;99.90
62916;DHT22;49010;51.230;-2.306;2022-10-31T20:52:44;15.60;99.90
62916;DHT22;49010;51.230;-2.306;2022-10-31T20:56:27;15.60;99.90
62916;DHT22;49010;51.230;-2.306;2022-10-31T21:00:10;15.30;99.90
62916;DHT22;49010;51.230;-2.306;2022-10-31T21:03:52;15.40;99.90
62916;DHT22;49010;51.230;-2.306;2022-10-31T21:07:34;15.40;99.90
62916;DHT22;49010;51.230;-2.306;2022-10-31T21:11:20;15.30;99.90
62916;DHT22;49010;51.230;-2.306;2022-10-31T21:15:02;15.20;99.90
62916;DHT22;49010;51.230;-2.306;2022-10-31T21:18:45;15.20;99.90
62916;DHT22;49010;51.230;-2.306;2022-10-31T21:22:27;15.00;99.90
62916;DHT22;49010;51.230;-2.306;2022-10-31T21:26:16;15.10;99.90
62916;DHT22;49010;51.230;-2.306;2022-10-31T21:29:58;14.90;99.90
62916;DHT22;49010;51.230;-2.306;2022-10-31T21:33:41;14.80;99.90
62916;DHT22;49010;51.230;-2.306;2022-10-31T21:37:23;14.80;99.90
62916;DHT22;49010;51.230;-2.306;2022-10-31T21:44:49;14.70;99.90
62916;DHT22;49010;51.230;-2.306;2022-10-31T21:48:31;14.50;99.90
62916;DHT22;49010;51.230;-2.306;2022-10-31T21:52:13;14.50;99.90
62916;DHT22;49010;51.230;-2.306;2022-10-31T21:56:00;14.40;99.90
62916;DHT22;49010;51.230;-2.306;2022-10-31T21:59:42;14.30;99.90
62916;DHT22;49010;51.230;-2.306;2022-10-31T22:03:29;14.40;99.90
62916;DHT22;49010;51.230;-2.306;2022-10-31T22:07:10;14.10;99.90
62916;DHT22;49010;51.230;-2.306;2022-10-31T22:10:52;14.10;99.90
62916;DHT22;49010;51.230;-2.306;2022-10-31T22:14:34;14.00;99.90
62916;DHT22;49010;51.230;-2.306;2022-10-31T22:18:16;14.10;99.90
62916;DHT22;49010;51.230;-2.306;2022-10-31T22:21:58;14.10;99.90
62916;DHT22;49010;51.230;-2.306;2022-10-31T22:25:40;14.10;99.90
62916;DHT22;49010;51.230;-2.306;2022-10-31T22:29:22;13.90;99.90
62916;DHT22;49010;51.230;-2.306;2022-10-31T22:33:04;14.00;99.90
62916;DHT22;49010;51.230;-2.306;2022-10-31T22:36:46;13.90;99.90
62916;DHT22;49010;51.230;-2.306;2022-10-31T22:40:28;14.00;99.90
62916;DHT22;49010;51.230;-2.306;2022-10-31T22:44:10;13.80;99.90
62916;DHT22;49010;51.230;-2.306;2022-10-31T22:47:52;13.70;99.90
62916;DHT22;49010;51.230;-2.306;2022-10-31T22:51:36;13.60;99.90
62916;DHT22;49010;51.230;-2.306;2022-10-31T22:55:18;13.50;99.90
62916;DHT22;49010;51.230;-2.306;2022-10-31T22:59:00;13.50;99.90
62916;DHT22;49010;51.230;-2.306;2022-10-31T23:02:43;13.30;99.90
62916;DHT22;49010;51.230;-2.306;2022-10-31T23:06:27;13.30;99.90
62916;DHT22;49010;51.230;-2.306;2022-10-31T23:10:10;13.30;99.90
62916;DHT22;49010;51.230;-2.306;2022-10-31T23:13:54;13.20;99.90
62916;DHT22;49010;51.230;-2.306;2022-10-31T23:17:56;13.20;99.90
62916;DHT22;49010;51.230;-2.306;2022-10-31T23:21:39;13.20;99.90
62916;DHT22;49010;51.230;-2.306;2022-10-31T23:25:45;13.10;99.90
62916;DHT22;49010;51.230;-2.306;2022-10-31T23:29:48;13.20;99.90
62916;DHT22;49010;51.230;-2.306;2022-10-31T23:33:30;13.00;99.90
62916;DHT22;49010;51.230;-2.306;2022-10-31T23:37:13;13.00;99.90
62916;DHT22;49010;51.230;-2.306;2022-10-31T23:40:55;13.00;99.90
62916;DHT22;49010;51.230;-2.306;2022-10-31T23:44:38;13.10;99.90
62916;DHT22;49010;51.230;-2.306;2022-10-31T23:48:20;13.10;99.90
62916;DHT22;49010;51.230;-2.306;2022-10-31T23:52:02;13.10;99.90
62916;DHT22;49010;51.230;-2.306;2022-10-31T23:55:45;13.20;99.90
62916;DHT22;49010;51.230;-2.306;2022-10-31T23:59:27;13.10;99.90
